Parnassus, Pennsylvania
Current Conditions -  °F | °C
As of 4:53 AM on Sunday 23 Nov 2014 (Local Time) from KAGC Reporting Station
Overcast Overcast  
Wind Chill: 43°   Ceiling: 6500
Heat Index: 46°   Visibility: 10mi
Dew Point: 26°   Wind: 6mph
Humidity: 46%   Direction: 160°SSE
Pressure: 30.09"   Gusts: NA
Location:  40.5657°N, 79.707°W
Report Text: KAGC 230953Z AUTO 16005KT 10SM BKN065 OVC080 08/M03 A3009 RMK AO2 RAB0858E33 SLP199 P0000 T00781033 TSNO
Loading
Personal Weather Stations






























Interactive Weather Map New forecast layout! Learn more

10-Day Weather Forecast

Advertisements
Track Severe Weather on mobile